Time;durP1;ratioP1;P1;durP2;ratioP2;P2;SDS_P1;SDS_P2;PMS_P1;PMS_P2;Temp;Humidity;BMP_temperature;BMP_pressure;BME280_temperature;BME280_humidity;BME280_pressure;Samples;Min_cycle;Max_cycle;Signal;HPM_P1;HPM_P2
2021/04/03 00:00:06;;;;;;;7.25;6.20;;;7.80;95.40;;;;;;5035163;28;20306;-39
2021/04/03 00:02:33;;;;;;;8.30;6.20;;;7.70;95.50;;;;;;5035523;28;20216;-38
2021/04/03 00:05:00;;;;;;;6.63;6.00;;;7.60;95.60;;;;;;5035275;28;20216;-40
2021/04/03 00:07:28;;;;;;;7.50;6.30;;;7.50;95.70;;;;;;5035124;28;20223;-40
2021/04/03 00:09:55;;;;;;;7.45;6.65;;;7.40;95.80;;;;;;5035121;28;20660;-39
2021/04/03 00:12:22;;;;;;;8.77;6.57;;;7.40;95.90;;;;;;5034968;28;20251;-39
2021/04/03 00:14:49;;;;;;;7.78;6.97;;;7.40;96.00;;;;;;5035109;28;20255;-42
2021/04/03 00:17:16;;;;;;;7.38;6.30;;;7.40;95.90;;;;;;5035164;28;20263;-39
2021/04/03 00:19:43;;;;;;;6.63;6.00;;;7.40;95.90;;;;;;5034811;28;20633;-39
2021/04/03 00:22:10;;;;;;;8.48;6.75;;;7.40;95.80;;;;;;5034790;28;20234;-39
2021/04/03 00:24:38;;;;;;;7.45;6.65;;;7.40;95.80;;;;;;5034809;28;20296;-40
2021/04/03 00:27:06;;;;;;;8.30;6.80;;;7.40;95.80;;;;;;5034516;28;20685;-39
2021/04/03 00:29:33;;;;;;;7.72;6.72;;;7.40;95.80;;;;;;5035157;28;20288;-39
2021/04/03 00:32:00;;;;;;;10.27;6.95;;;7.40;95.80;;;;;;5034848;28;20288;-39
2021/04/03 00:34:27;;;;;;;8.32;6.57;;;7.30;95.80;;;;;;5034620;28;20761;-39
2021/04/03 00:36:54;;;;;;;9.18;6.53;;;7.30;95.80;;;;;;5034570;28;20758;-39
2021/04/03 00:39:21;;;;;;;8.38;5.82;;;7.30;95.80;;;;;;5034505;28;20279;-39
2021/04/03 00:41:49;;;;;;;8.13;6.30;;;7.20;95.90;;;;;;5034441;28;20268;-39
2021/04/03 00:44:16;;;;;;;6.95;6.25;;;7.10;96.00;;;;;;5034652;28;20241;-39
2021/04/03 00:46:43;;;;;;;9.52;6.53;;;7.10;96.00;;;;;;5034275;28;20299;-39
2021/04/03 00:49:10;;;;;;;9.35;7.18;;;7.10;96.10;;;;;;5034396;28;20247;-39
2021/04/03 00:51:37;;;;;;;7.68;6.35;;;7.10;96.40;;;;;;5034379;28;20240;-39
2021/04/03 00:54:04;;;;;;;7.55;6.22;;;7.10;96.20;;;;;;5034024;28;20739;-40
2021/04/03 00:56:31;;;;;;;7.35;6.55;;;7.10;96.20;;;;;;5034130;28;20291;-39
2021/04/03 00:58:59;;;;;;;8.38;6.47;;;7.10;96.10;;;;;;5034096;28;20597;-39
2021/04/03 01:01:26;;;;;;;8.27;6.50;;;7.10;96.10;;;;;;5034189;28;20599;-39
2021/04/03 01:03:54;;;;;;;6.95;6.32;;;7.10;96.10;;;;;;5034280;28;20209;-38
2021/04/03 01:06:21;;;;;;;7.03;6.18;;;7.10;96.10;;;;;;5034169;28;20277;-38
2021/04/03 01:08:48;;;;;;;9.18;6.82;;;7.00;96.20;;;;;;5033779;28;20270;-38
2021/04/03 01:11:15;;;;;;;8.32;6.10;;;7.00;96.30;;;;;;5034066;28;20228;-38
2021/04/03 01:13:57;;;;;;;9.23;6.68;;;7.00;96.30;;;;;;5034221;28;20304;-38
2021/04/03 01:16:32;;;;;;;11.65;6.90;;;6.90;96.60;;;;;;5033954;28;20212;-37
2021/04/03 01:19:27;;;;;;;11.25;6.82;;;6.80;96.70;;;;;;5033814;28;20609;-38
2021/04/03 01:22:27;;;;;;;8.32;6.20;;;6.60;97.00;;;;;;5031611;28;20280;-39
2021/04/03 01:25:03;;;;;;;9.18;6.13;;;6.60;97.00;;;;;;5013196;28;20303;-40
2021/04/03 01:27:31;;;;;;;6.35;5.05;;;6.50;97.00;;;;;;5033543;28;20244;-39
2021/04/03 01:30:06;;;;;;;8.23;6.60;;;6.50;96.90;;;;;;5033293;28;20667;-38
2021/04/03 01:32:44;;;;;;;10.45;6.90;;;6.50;96.90;;;;;;5033739;28;20212;-38
2021/04/03 01:35:16;;;;;;;6.80;6.10;;;6.50;96.80;;;;;;5033448;28;20299;-37
2021/04/03 01:37:47;;;;;;;8.77;6.07;;;6.50;96.70;;;;;;5033427;28;20295;-38
2021/04/03 01:40:18;;;;;;;6.07;5.55;;;6.50;96.50;;;;;;5033592;28;20197;-38
2021/04/03 01:42:50;;;;;;;7.30;5.55;;;6.40;96.40;;;;;;5033591;28;20307;-38
2021/04/03 01:45:21;;;;;;;7.57;5.13;;;6.30;96.50;;;;;;5033380;28;20303;-38
2021/04/03 01:47:49;;;;;;;6.85;5.50;;;6.30;96.50;;;;;;5033387;28;20291;-38
2021/04/03 01:50:18;;;;;;;7.68;5.82;;;6.20;96.40;;;;;;5032976;28;20251;-38
2021/04/03 01:52:47;;;;;;;9.60;4.55;;;6.20;96.30;;;;;;5033138;28;20310;-38
2021/04/03 01:55:15;;;;;;;6.28;5.13;;;6.20;96.30;;;;;;5033192;28;20208;-38
2021/04/03 01:57:48;;;;;;;8.05;5.50;;;6.10;96.30;;;;;;5032953;28;20211;-38
2021/04/03 02:00:20;;;;;;;8.55;5.20;;;6.10;96.20;;;;;;5032865;28;20632;-38
2021/04/03 02:02:48;;;;;;;8.30;4.25;;;6.20;96.10;;;;;;5032673;28;20258;-38
2021/04/03 02:05:16;;;;;;;5.63;4.35;;;6.20;96.00;;;;;;5032516;28;20660;-38
2021/04/03 02:07:46;;;;;;;10.25;4.90;;;6.20;96.10;;;;;;5032655;28;20295;-38
2021/04/03 02:10:15;;;;;;;5.43;4.93;;;6.10;95.80;;;;;;5032134;28;20254;-38
2021/04/03 02:12:44;;;;;;;8.50;5.00;;;6.10;95.80;;;;;;5032665;28;20304;-37
2021/04/03 02:15:12;;;;;;;6.30;4.20;;;6.10;95.80;;;;;;5032519;28;20300;-38
2021/04/03 02:17:43;;;;;;;7.00;5.00;;;6.00;95.80;;;;;;5032377;28;20299;-38
2021/04/03 02:20:12;;;;;;;8.05;4.68;;;6.00;95.80;;;;;;5032327;28;20236;-38
2021/04/03 02:22:41;;;;;;;6.88;4.63;;;6.00;95.80;;;;;;5032483;28;20276;-38
2021/04/03 02:25:10;;;;;;;9.35;4.47;;;6.10;95.60;;;;;;5032693;28;20296;-38
2021/04/03 02:27:37;;;;;;;5.57;3.97;;;6.10;95.50;;;;;;5032534;28;20205;-38
2021/04/03 02:30:12;;;;;;;6.65;4.53;;;6.10;95.50;;;;;;5032555;28;20307;-38
2021/04/03 02:32:42;;;;;;;6.57;4.93;;;6.20;95.40;;;;;;5032712;28;20212;-38
2021/04/03 02:35:10;;;;;;;5.97;4.47;;;6.20;95.20;;;;;;5032559;28;20249;-38
2021/04/03 02:37:40;;;;;;;8.43;4.35;;;6.10;95.10;;;;;;5032559;28;20267;-39
2021/04/03 02:40:10;;;;;;;6.80;3.88;;;6.20;95.10;;;;;;5032252;28;20634;-38
2021/04/03 02:42:41;;;;;;;7.70;4.38;;;6.20;95.00;;;;;;5032174;28;20248;-38
2021/04/03 02:45:10;;;;;;;7.18;4.30;;;6.20;94.90;;;;;;5032285;28;20713;-39
2021/04/03 02:47:42;;;;;;;5.15;4.22;;;6.30;94.70;;;;;;5032206;28;20300;-38
2021/04/03 02:50:16;;;;;;;6.40;4.07;;;6.30;94.90;;;;;;5032346;28;20209;-38
2021/04/03 02:52:48;;;;;;;10.65;4.25;;;6.30;94.40;;;;;;5032143;28;20291;-38
2021/04/03 02:55:18;;;;;;;8.15;5.07;;;6.30;94.40;;;;;;5032038;28;20627;-38
2021/04/03 02:57:46;;;;;;;9.50;4.50;;;6.40;94.30;;;;;;5032026;28;20633;-38
2021/04/03 03:00:15;;;;;;;8.23;4.82;;;6.40;94.10;;;;;;5032125;28;20287;-38
2021/04/03 03:02:44;;;;;;;8.40;4.47;;;6.50;93.90;;;;;;5032074;28;20248;-38
2021/04/03 03:05:13;;;;;;;6.13;4.10;;;6.50;93.80;;;;;;5032144;28;20632;-38
2021/04/03 03:07:44;;;;;;;7.43;4.82;;;6.50;93.90;;;;;;5031949;28;20287;-38
2021/04/03 03:10:14;;;;;;;6.80;4.43;;;6.50;93.80;;;;;;5032222;28;20291;-38
2021/04/03 03:12:43;;;;;;;5.47;4.22;;;6.50;93.80;;;;;;5032133;28;20204;-39
2021/04/03 03:15:12;;;;;;;8.25;4.00;;;6.40;93.80;;;;;;5032008;28;20682;-39
2021/04/03 03:17:42;;;;;;;10.18;4.70;;;6.40;93.90;;;;;;5031887;28;20209;-39
2021/04/03 03:20:11;;;;;;;6.78;4.55;;;6.30;93.90;;;;;;5031865;28;20734;-39
2021/04/03 03:22:39;;;;;;;6.72;4.50;;;6.30;93.90;;;;;;5034847;28;20251;-39
2021/04/03 03:25:07;;;;;;;6.25;4.40;;;6.30;93.90;;;;;;5036149;28;20361;-38
2021/04/03 03:27:36;;;;;;;7.97;4.45;;;6.20;93.80;;;;;;5035655;28;20752;-39
2021/04/03 03:30:05;;;;;;;6.55;4.43;;;6.20;93.80;;;;;;5035714;28;20804;-39
2021/04/03 03:32:32;;;;;;;6.22;4.38;;;6.20;93.80;;;;;;5035805;28;20747;-39
2021/04/03 03:35:00;;;;;;;8.98;4.40;;;6.20;93.80;;;;;;5035853;28;20213;-38
2021/04/03 03:37:28;;;;;;;7.45;4.55;;;6.10;93.80;;;;;;5035539;28;20662;-39
2021/04/03 03:39:56;;;;;;;7.32;4.28;;;6.10;94.10;;;;;;5035732;28;20240;-39
2021/04/03 03:42:23;;;;;;;7.75;4.45;;;6.10;94.00;;;;;;5035683;28;20228;-39
2021/04/03 03:44:51;;;;;;;6.93;4.50;;;6.00;94.00;;;;;;5035979;28;20220;-39
2021/04/03 03:47:18;;;;;;;8.25;3.85;;;5.90;94.30;;;;;;5035748;28;20217;-39
2021/04/03 03:49:45;;;;;;;7.65;4.43;;;5.80;94.00;;;;;;5035510;28;20299;-39
2021/04/03 03:52:12;;;;;;;6.20;4.05;;;5.80;94.10;;;;;;5035382;28;20235;-39
2021/04/03 03:54:40;;;;;;;4.60;3.92;;;5.70;94.20;;;;;;5035509;28;20287;-39
2021/04/03 03:57:07;;;;;;;6.38;4.50;;;5.60;94.20;;;;;;5035464;28;20661;-39
2021/04/03 03:59:34;;;;;;;6.85;4.20;;;5.60;94.30;;;;;;5035141;28;20296;-39
2021/04/03 04:02:01;;;;;;;5.15;4.03;;;5.60;94.30;;;;;;5035080;28;20229;-39
2021/04/03 04:04:28;;;;;;;8.10;3.67;;;5.60;94.30;;;;;;5035089;28;20304;-39
2021/04/03 04:06:55;;;;;;;10.73;4.57;;;5.60;94.30;;;;;;5034891;28;20213;-39
2021/04/03 04:09:22;;;;;;;6.30;4.63;;;5.50;94.30;;;;;;5035161;28;20267;-39
2021/04/03 04:11:51;;;;;;;8.93;4.00;;;5.50;94.40;;;;;;5035020;28;20205;-39
2021/04/03 04:14:18;;;;;;;5.55;3.80;;;5.40;94.40;;;;;;5034947;28;20216;-39
2021/04/03 04:16:45;;;;;;;7.13;4.57;;;5.40;94.40;;;;;;5035188;28;20213;-39
2021/04/03 04:19:12;;;;;;;6.30;4.03;;;5.40;94.40;;;;;;5035203;28;20274;-39
2021/04/03 04:21:39;;;;;;;5.82;4.13;;;5.40;94.70;;;;;;5034532;28;20709;-39
2021/04/03 04:24:06;;;;;;;6.32;3.92;;;5.40;94.40;;;;;;5034922;28;20219;-39
2021/04/03 04:26:33;;;;;;;6.85;3.90;;;5.40;94.40;;;;;;5034442;28;20213;-39
2021/04/03 04:29:01;;;;;;;5.38;3.85;;;5.40;94.40;;;;;;5035056;28;20484;-39
2021/04/03 04:31:28;;;;;;;4.95;3.88;;;5.40;94.40;;;;;;5034825;28;20618;-39
2021/04/03 04:33:55;;;;;;;6.45;3.75;;;5.40;94.40;;;;;;5034316;28;20235;-38
2021/04/03 04:36:22;;;;;;;4.70;4.30;;;5.40;94.30;;;;;;5034706;28;20232;-39
2021/04/03 04:38:49;;;;;;;6.70;4.95;;;5.50;94.40;;;;;;5035777;28;20287;-39
2021/04/03 04:41:16;;;;;;;9.52;4.63;;;5.40;94.40;;;;;;5034821;28;20328;-39
2021/04/03 04:43:43;;;;;;;8.55;4.53;;;5.40;94.50;;;;;;5034718;28;20296;-39
2021/04/03 04:46:11;;;;;;;5.55;4.15;;;5.40;94.50;;;;;;5034408;28;20288;-39
2021/04/03 04:48:38;;;;;;;8.25;4.75;;;5.40;94.50;;;;;;5034405;28;20299;-39
2021/04/03 04:51:05;;;;;;;5.03;4.35;;;5.50;94.40;;;;;;5034509;28;20215;-39
2021/04/03 04:53:32;;;;;;;8.63;5.38;;;5.60;94.40;;;;;;5034454;28;20299;-39
2021/04/03 04:56:00;;;;;;;9.05;4.80;;;5.60;94.30;;;;;;5034221;28;20583;-39
2021/04/03 04:58:27;;;;;;;7.68;4.47;;;5.60;94.40;;;;;;5034385;28;20243;-39
2021/04/03 05:00:54;;;;;;;8.18;4.32;;;5.50;94.40;;;;;;5034175;28;20801;-41
2021/04/03 05:03:22;;;;;;;7.05;4.68;;;5.50;94.50;;;;;;5034229;28;20243;-38
2021/04/03 05:05:49;;;;;;;5.38;4.88;;;5.50;94.60;;;;;;5034184;28;20291;-39
2021/04/03 05:08:16;;;;;;;7.00;4.28;;;5.50;94.60;;;;;;5033799;28;20785;-39
2021/04/03 05:10:43;;;;;;;20.92;12.68;;;5.50;94.60;;;;;;5033861;28;20308;-39
2021/04/03 05:13:10;;;;;;;39.53;27.67;;;5.50;94.70;;;;;;5034093;28;20212;-39
2021/04/03 05:15:37;;;;;;;12.38;9.38;;;5.50;94.80;;;;;;5033710;28;20215;-39
2021/04/03 05:18:04;;;;;;;15.23;13.63;;;5.50;94.80;;;;;;5034264;28;20231;-39
2021/04/03 05:20:32;;;;;;;6.82;6.22;;;5.50;94.80;;;;;;5034340;28;20300;-39
2021/04/03 05:22:59;;;;;;;7.60;5.45;;;5.50;94.80;;;;;;5033512;28;20272;-39
2021/04/03 05:25:26;;;;;;;9.18;7.32;;;5.50;94.90;;;;;;5033807;28;20255;-40
2021/04/03 05:27:53;;;;;;;6.05;5.20;;;5.50;94.90;;;;;;5034151;28;20288;-39
2021/04/03 05:30:20;;;;;;;8.05;5.60;;;5.50;95.00;;;;;;5033785;28;20232;-39
2021/04/03 05:32:48;;;;;;;9.70;5.68;;;5.50;95.30;;;;;;5033084;28;20209;-39
2021/04/03 05:35:15;;;;;;;7.13;5.05;;;5.60;95.30;;;;;;5033441;28;20655;-39
2021/04/03 05:37:44;;;;;;;5.47;4.90;;;5.60;95.10;;;;;;5033420;28;20236;-39
2021/04/03 05:40:11;;;;;;;8.80;5.65;;;5.60;95.00;;;;;;5033279;28;20255;-39
2021/04/03 05:42:41;;;;;;;7.93;5.18;;;5.70;95.00;;;;;;5033558;28;20229;-40
2021/04/03 05:45:12;;;;;;;9.48;5.60;;;5.70;94.90;;;;;;5032773;28;20299;-39
2021/04/03 05:47:39;;;;;;;6.88;5.18;;;5.70;94.80;;;;;;5033208;28;20300;-38
2021/04/03 05:50:08;;;;;;;7.38;5.88;;;5.60;94.90;;;;;;5033163;28;20311;-39
2021/04/03 05:52:35;;;;;;;7.72;5.32;;;5.70;95.00;;;;;;5033211;28;20248;-39
2021/04/03 05:55:05;;;;;;;7.40;5.72;;;5.70;94.90;;;;;;5033298;28;20208;-39
2021/04/03 05:57:32;;;;;;;7.90;6.03;;;5.70;95.00;;;;;;5033226;28;20240;-39
2021/04/03 05:59:59;;;;;;;7.32;5.13;;;5.70;94.90;;;;;;5032963;28;20633;-38
2021/04/03 06:02:26;;;;;;;7.50;5.47;;;5.80;94.90;;;;;;5032820;28;20228;-38
2021/04/03 06:04:53;;;;;;;8.10;5.53;;;5.80;94.80;;;;;;5033291;28;20244;-39
2021/04/03 06:07:20;;;;;;;7.75;6.07;;;5.80;94.80;;;;;;5033176;28;20300;-38
2021/04/03 06:09:48;;;;;;;7.85;5.55;;;5.80;94.80;;;;;;5032961;28;20244;-38
2021/04/03 06:12:39;;;;;;;6.82;5.68;;;5.70;94.80;;;;;;5032874;28;20323;-38
2021/04/03 06:15:07;;;;;;;8.93;5.32;;;5.70;94.80;;;;;;5032750;28;20750;-39
2021/04/03 06:17:34;;;;;;;7.97;4.25;;;5.80;94.80;;;;;;5032772;28;20304;-39
2021/04/03 06:20:02;;;;;;;6.07;4.38;;;5.90;94.70;;;;;;5032901;28;20548;-38
2021/04/03 06:22:41;;;;;;;6.25;4.35;;;5.90;94.60;;;;;;5032444;28;20239;-38
2021/04/03 06:25:09;;;;;;;6.80;4.65;;;5.90;94.60;;;;;;5032703;28;20303;-38
2021/04/03 06:27:37;;;;;;;5.95;4.78;;;5.90;94.60;;;;;;5032553;28;20243;-39
2021/04/03 06:30:14;;;;;;;5.43;4.47;;;6.00;94.60;;;;;;5032759;28;20291;-39
2021/04/03 06:32:43;;;;;;;6.20;4.03;;;6.00;94.50;;;;;;5032610;28;20255;-39
2021/04/03 06:35:11;;;;;;;6.55;4.30;;;6.00;94.30;;;;;;5033145;28;20652;-38
2021/04/03 06:37:39;;;;;;;5.82;5.32;;;6.10;94.30;;;;;;5032313;28;20216;-38
2021/04/03 06:40:08;;;;;;;5.75;4.43;;;6.10;94.20;;;;;;5032711;28;20602;-38
2021/04/03 06:42:51;;;;;;;5.50;3.90;;;6.10;94.10;;;;;;5032480;28;20231;-39
2021/04/03 06:45:20;;;;;;;13.77;4.68;;;6.20;94.10;;;;;;5032263;28;20663;-40
2021/04/03 06:47:48;;;;;;;8.50;4.22;;;6.30;93.90;;;;;;5032056;28;20676;-39
2021/04/03 06:50:16;;;;;;;7.25;5.10;;;6.40;93.80;;;;;;5032143;28;20275;-39
2021/04/03 06:52:44;;;;;;;7.55;5.78;;;6.40;93.70;;;;;;5032062;28;20307;-39
2021/04/03 06:55:13;;;;;;;4.78;4.28;;;6.50;93.60;;;;;;5032118;28;20204;-39
2021/04/03 06:57:43;;;;;;;7.28;5.40;;;6.50;93.60;;;;;;5032071;28;20675;-39
2021/04/03 07:00:12;;;;;;;5.82;4.13;;;6.40;93.60;;;;;;5032114;28;20284;-39
2021/04/03 07:02:45;;;;;;;5.63;4.38;;;6.30;93.70;;;;;;5032504;28;20224;-39
2021/04/03 07:05:14;;;;;;;8.23;5.40;;;6.30;93.90;;;;;;5032226;28;20307;-39
2021/04/03 07:07:43;;;;;;;7.68;4.55;;;6.40;93.90;;;;;;5032259;28;20307;-39
2021/04/03 07:10:13;;;;;;;6.05;4.65;;;6.50;93.80;;;;;;5032009;28;20726;-39
2021/04/03 07:12:42;;;;;;;5.57;4.60;;;6.70;93.50;;;;;;5031935;28;20750;-39
2021/04/03 07:15:10;;;;;;;8.90;4.28;;;6.90;93.20;;;;;;5031943;28;20619;-39
2021/04/03 07:17:40;;;;;;;7.32;4.50;;;7.00;93.00;;;;;;5031576;28;20213;-39
2021/04/03 07:20:10;;;;;;;5.75;4.40;;;7.10;92.90;;;;;;5031631;28;20219;-39
2021/04/03 07:22:45;;;;;;;7.75;4.30;;;7.30;92.80;;;;;;5031511;28;20245;-39
2021/04/03 07:25:12;;;;;;;7.50;5.07;;;7.60;92.40;;;;;;5031625;28;20340;-39
2021/04/03 07:27:42;;;;;;;5.25;4.45;;;7.80;92.10;;;;;;5031475;28;20288;-39
2021/04/03 07:30:11;;;;;;;7.63;4.50;;;8.00;91.70;;;;;;5031456;28;20280;-39
2021/04/03 07:32:41;;;;;;;5.95;5.22;;;8.20;91.30;;;;;;5031381;28;20570;-40
2021/04/03 07:35:20;;;;;;;8.75;4.88;;;8.30;91.30;;;;;;5031277;28;20598;-40
2021/04/03 07:37:47;;;;;;;7.72;5.05;;;8.10;90.80;;;;;;5031678;28;20307;-39
2021/04/03 07:40:35;;;;;;;5.93;5.00;;;7.90;91.20;;;;;;5031226;28;20244;-39
2021/04/03 07:43:04;;;;;;;6.10;4.63;;;7.70;91.50;;;;;;5031362;28;20225;-39
2021/04/03 07:45:46;;;;;;;5.30;4.68;;;7.70;91.60;;;;;;5031290;28;20243;-39
2021/04/03 07:48:44;;;;;;;7.82;4.80;;;7.80;91.30;;;;;;5031359;28;20220;-39
2021/04/03 07:51:12;;;;;;;4.45;4.05;;;8.00;90.90;;;;;;5031843;28;20552;-39
2021/04/03 07:53:42;;;;;;;5.55;4.05;;;8.20;90.70;;;;;;5031435;28;20214;-40
2021/04/03 07:56:10;;;;;;;6.50;5.45;;;8.40;90.40;;;;;;5031320;28;20582;-40
2021/04/03 07:58:45;;;;;;;7.22;4.85;;;8.40;90.20;;;;;;5031234;28;20215;-39
2021/04/03 08:01:32;;;;;;;6.63;4.75;;;8.30;90.10;;;;;;5031613;28;20229;-40
2021/04/03 08:04:01;;;;;;;5.80;4.53;;;8.30;90.00;;;;;;5031344;28;20602;-40
2021/04/03 08:06:30;;;;;;;5.47;4.28;;;8.30;89.70;;;;;;5031399;28;20209;-40
2021/04/03 08:08:58;;;;;;;5.65;5.13;;;8.30;90.00;;;;;;5034740;28;20705;-39
2021/04/03 08:11:25;;;;;;;6.22;4.50;;;8.30;90.00;;;;;;5035058;28;20686;-40
2021/04/03 08:13:56;;;;;;;5.47;4.05;;;8.40;89.40;;;;;;5035016;28;20212;-39
2021/04/03 08:16:26;;;;;;;6.50;4.25;;;8.50;89.40;;;;;;5035469;28;20247;-39
2021/04/03 08:18:56;;;;;;;7.78;4.63;;;8.70;89.10;;;;;;5035266;28;20215;-39
2021/04/03 08:21:25;;;;;;;7.50;4.70;;;8.80;88.60;;;;;;5034799;28;20660;-39
2021/04/03 08:23:53;;;;;;;5.38;4.70;;;8.90;87.80;;;;;;5034964;28;20549;-39
2021/04/03 08:26:23;;;;;;;5.88;4.03;;;8.80;87.30;;;;;;5034751;28;20624;-39
2021/04/03 08:28:51;;;;;;;7.00;3.83;;;8.60;87.60;;;;;;5034947;28;20312;-40
2021/04/03 08:31:21;;;;;;;8.43;5.05;;;8.60;87.40;;;;;;5034724;28;20312;-40
2021/04/03 08:33:50;;;;;;;9.38;3.88;;;8.70;87.20;;;;;;5034701;28;20303;-38
2021/04/03 08:36:18;;;;;;;6.63;4.32;;;8.80;86.40;;;;;;5034435;28;20209;-38
2021/04/03 08:38:46;;;;;;;4.43;3.53;;;9.10;85.80;;;;;;5034416;28;20303;-39
2021/04/03 08:41:16;;;;;;;5.18;3.90;;;9.10;84.30;;;;;;5034693;28;20215;-38
2021/04/03 08:43:43;;;;;;;6.03;4.13;;;9.10;84.50;;;;;;5034679;28;20300;-38
2021/04/03 08:46:13;;;;;;;5.18;4.28;;;9.20;84.50;;;;;;5034561;28;20211;-38
2021/04/03 08:48:43;;;;;;;6.38;4.60;;;9.20;83.80;;;;;;5034653;28;20266;-38
2021/04/03 08:51:12;;;;;;;7.88;4.10;;;9.10;82.90;;;;;;5034318;28;20223;-38
2021/04/03 08:53:41;;;;;;;7.43;5.47;;;8.90;83.20;;;;;;5034256;28;20292;-38
2021/04/03 08:56:09;;;;;;;6.85;4.55;;;8.80;83.50;;;;;;5034472;28;20707;-38
2021/04/03 08:58:37;;;;;;;5.05;4.15;;;8.70;83.90;;;;;;5034388;28;20291;-38
2021/04/03 09:01:05;;;;;;;5.32;4.47;;;8.70;84.30;;;;;;5034103;28;20610;-39
2021/04/03 09:03:34;;;;;;;5.72;4.15;;;8.80;84.00;;;;;;5034138;28;20240;-39
2021/04/03 09:06:03;;;;;;;7.88;4.28;;;8.90;83.50;;;;;;5034152;28;20227;-38
2021/04/03 09:08:30;;;;;;;5.47;3.50;;;8.90;83.10;;;;;;5034291;28;20208;-37
2021/04/03 09:10:59;;;;;;;4.22;3.80;;;9.00;83.20;;;;;;5033982;28;20312;-38
2021/04/03 09:13:32;;;;;;;5.80;4.32;;;9.00;83.10;;;;;;5033938;28;20240;-37
2021/04/03 09:16:10;;;;;;;5.63;3.95;;;9.10;82.80;;;;;;5034073;28;20231;-38
2021/04/03 09:18:38;;;;;;;4.82;3.85;;;9.30;82.40;;;;;;5034076;28;20204;-41
2021/04/03 09:21:06;;;;;;;7.10;4.28;;;9.40;81.80;;;;;;5033973;28;20252;-39
2021/04/03 09:23:40;;;;;;;5.57;3.58;;;9.50;80.50;;;;;;5033579;28;20323;-39
2021/04/03 09:26:08;;;;;;;4.45;3.20;;;9.70;79.30;;;;;;5033771;28;20212;-40
2021/04/03 09:28:40;;;;;;;7.72;4.05;;;9.90;78.80;;;;;;5033789;28;20311;-40
2021/04/03 09:31:08;;;;;;;4.78;3.50;;;10.10;78.00;;;;;;5034193;28;20300;-40
2021/04/03 09:33:46;;;;;;;5.05;4.28;;;10.40;77.10;;;;;;5033774;28;20219;-39
2021/04/03 09:36:15;;;;;;;4.28;3.55;;;10.40;76.40;;;;;;5033693;28;20250;-39
2021/04/03 09:38:44;;;;;;;3.88;3.08;;;10.30;75.80;;;;;;5033438;28;20758;-40
2021/04/03 09:41:21;;;;;;;5.10;3.42;;;10.10;76.30;;;;;;5033277;28;20308;-40
2021/04/03 09:43:48;;;;;;;5.78;3.40;;;9.80;75.10;;;;;;5033494;28;20209;-40
2021/04/03 09:46:16;;;;;;;6.18;3.83;;;9.60;76.70;;;;;;5033519;28;20247;-40
2021/04/03 09:48:43;;;;;;;4.28;3.25;;;9.40;77.30;;;;;;5033344;28;20252;-42
2021/04/03 09:51:11;;;;;;;7.03;3.50;;;9.40;77.50;;;;;;5033089;28;20725;-42
2021/04/03 09:53:39;;;;;;;4.32;3.28;;;9.40;77.20;;;;;;5033137;28;20723;-41
2021/04/03 09:56:07;;;;;;;3.33;3.05;;;9.50;76.40;;;;;;5033401;28;20204;-43
2021/04/03 09:58:34;;;;;;;3.78;2.65;;;9.70;75.50;;;;;;5033168;28;20208;-41
2021/04/03 10:01:03;;;;;;;2.55;2.35;;;9.80;73.90;;;;;;5032978;28;20213;-41
2021/04/03 10:03:30;;;;;;;9.40;3.28;;;10.00;73.70;;;;;;5032985;28;20278;-41
2021/04/03 10:06:00;;;;;;;4.70;2.97;;;10.30;72.60;;;;;;5032945;28;20576;-39
2021/04/03 10:08:27;;;;;;;11.45;3.67;;;10.60;71.60;;;;;;5032900;28;20344;-40
2021/04/03 10:10:55;;;;;;;7.38;3.58;;;10.70;71.30;;;;;;5033023;28;20303;-39
2021/04/03 10:13:23;;;;;;;5.45;3.38;;;10.90;70.60;;;;;;5033132;28;20204;-41
2021/04/03 10:15:50;;;;;;;6.00;3.20;;;11.10;70.20;;;;;;5032929;28;20673;-41
2021/04/03 10:18:18;;;;;;;5.97;3.53;;;11.30;69.70;;;;;;5032856;28;20300;-40
2021/04/03 10:20:45;;;;;;;3.47;2.97;;;11.70;68.20;;;;;;5032729;28;20244;-41
2021/04/03 10:23:12;;;;;;;4.28;3.10;;;11.80;66.20;;;;;;5032436;28;20240;-41
2021/04/03 10:25:39;;;;;;;6.43;3.70;;;11.80;66.10;;;;;;5032610;28;20236;-40
2021/04/03 10:28:09;;;;;;;4.38;2.97;;;11.50;66.10;;;;;;5032599;28;20208;-41
2021/04/03 10:30:36;;;;;;;4.95;3.75;;;11.30;67.00;;;;;;5032152;28;20216;-40
2021/04/03 10:33:03;;;;;;;4.10;2.47;;;11.10;67.60;;;;;;5032547;28;20580;-39
2021/04/03 10:35:31;;;;;;;4.63;3.03;;;11.10;67.80;;;;;;5032384;28;20295;-39
2021/04/03 10:37:58;;;;;;;4.32;3.08;;;11.00;67.80;;;;;;5032323;28;20299;-39
2021/04/03 10:40:25;;;;;;;5.38;4.22;;;10.80;68.10;;;;;;5032568;28;20259;-39
2021/04/03 10:42:52;;;;;;;3.10;2.78;;;10.80;68.50;;;;;;5032213;28;20699;-39
2021/04/03 10:45:20;;;;;;;3.67;3.00;;;10.70;68.60;;;;;;5032239;28;20304;-40
2021/04/03 10:47:47;;;;;;;5.47;3.28;;;10.70;68.50;;;;;;5031998;28;20204;-40
2021/04/03 10:50:15;;;;;;;4.95;2.53;;;10.80;68.50;;;;;;5032432;28;20240;-40
2021/04/03 10:52:41;;;;;;;6.18;3.08;;;10.80;68.20;;;;;;5032101;28;20674;-40
2021/04/03 10:55:10;;;;;;;6.00;3.90;;;10.80;68.00;;;;;;5032275;28;20303;-40
2021/04/03 10:57:37;;;;;;;3.20;2.90;;;10.90;68.10;;;;;;5032315;28;20220;-40
2021/04/03 11:00:05;;;;;;;3.60;3.10;;;11.00;67.90;;;;;;5032073;28;20299;-41
2021/04/03 11:02:33;;;;;;;4.68;3.53;;;11.20;67.50;;;;;;5031956;28;20315;-40
2021/04/03 11:05:00;;;;;;;4.40;3.10;;;11.50;67.20;;;;;;5032135;28;20253;-40
2021/04/03 11:07:27;;;;;;;6.63;3.08;;;11.50;66.90;;;;;;5032339;28;20303;-40
2021/04/03 11:09:54;;;;;;;6.53;3.17;;;11.50;67.00;;;;;;5032406;28;20308;-39
2021/04/03 11:12:21;;;;;;;3.00;2.70;;;11.40;66.90;;;;;;5031949;28;20200;-39
2021/04/03 11:14:48;;;;;;;5.30;3.38;;;11.30;67.70;;;;;;5031976;28;20232;-39
2021/04/03 11:17:15;;;;;;;3.85;3.00;;;11.20;67.20;;;;;;5031888;28;20645;-39
2021/04/03 11:19:43;;;;;;;7.80;3.88;;;11.00;67.80;;;;;;5031959;28;20204;-38
2021/04/03 11:22:10;;;;;;;5.28;3.25;;;10.90;68.00;;;;;;5031676;28;20760;-39
2021/04/03 11:24:37;;;;;;;5.10;3.53;;;10.80;68.00;;;;;;5031724;28;20304;-39
2021/04/03 11:27:05;;;;;;;5.68;2.95;;;10.80;68.10;;;;;;5031854;28;20255;-39
2021/04/03 11:29:45;;;;;;;3.63;2.55;;;10.70;67.80;;;;;;5032073;28;20219;-39
2021/04/03 11:32:12;;;;;;;4.03;2.92;;;10.70;67.10;;;;;;5032148;28;20205;-39
2021/04/03 11:34:40;;;;;;;4.38;3.30;;;10.80;67.00;;;;;;5031905;28;20204;-39
2021/04/03 11:37:07;;;;;;;4.75;3.03;;;10.70;68.00;;;;;;5031951;28;20295;-39
2021/04/03 11:39:35;;;;;;;8.32;3.95;;;10.80;68.00;;;;;;5031842;28;20267;-39
2021/04/03 11:42:03;;;;;;;4.82;3.35;;;10.90;67.00;;;;;;5031945;28;20232;-39
2021/04/03 11:44:30;;;;;;;3.05;2.65;;;11.00;66.70;;;;;;5035882;28;20204;-38
2021/04/03 11:46:57;;;;;;;3.83;2.33;;;11.00;66.50;;;;;;5035773;28;20285;-39
2021/04/03 11:49:24;;;;;;;4.53;2.40;;;11.30;65.80;;;;;;5035711;28;20367;-39
2021/04/03 11:51:52;;;;;;;4.75;3.25;;;11.70;64.40;;;;;;5035580;28;20208;-38
2021/04/03 11:54:20;;;;;;;5.57;2.35;;;12.10;62.90;;;;;;5035503;28;20201;-40
2021/04/03 11:56:47;;;;;;;8.27;6.50;;;12.20;61.60;;;;;;5035357;28;20299;-43
2021/04/03 11:59:14;;;;;;;3.25;2.55;;;12.20;61.20;;;;;;5035920;28;20232;-40
2021/04/03 12:01:41;;;;;;;5.53;2.53;;;12.00;62.00;;;;;;5035651;28;20236;-39
2021/04/03 12:04:08;;;;;;;3.40;2.60;;;11.80;61.80;;;;;;5035580;28;20304;-39
2021/04/03 12:06:34;;;;;;;3.60;2.25;;;11.50;62.40;;;;;;5035552;28;20295;-39
2021/04/03 12:09:02;;;;;;;2.72;2.35;;;11.00;63.10;;;;;;5036761;28;20575;-40
2021/04/03 12:11:30;;;;;;;3.65;2.63;;;10.70;64.20;;;;;;5036794;28;20295;-39
2021/04/03 12:13:56;;;;;;;3.72;3.00;;;10.50;64.90;;;;;;5035874;28;20293;-40
2021/04/03 12:16:23;;;;;;;5.32;2.72;;;10.30;65.40;;;;;;5035515;28;20595;-40
2021/04/03 12:18:50;;;;;;;5.00;3.50;;;10.20;65.70;;;;;;5034852;28;20263;-39
2021/04/03 12:21:18;;;;;;;4.45;2.97;;;10.20;65.90;;;;;;5034736;28;20209;-39
2021/04/03 12:23:45;;;;;;;5.40;3.15;;;10.20;66.10;;;;;;5034646;28;20267;-42
2021/04/03 12:26:12;;;;;;;9.82;3.90;;;10.10;66.40;;;;;;5034911;28;20306;-42
2021/04/03 12:28:40;;;;;;;4.50;2.92;;;10.10;66.80;;;;;;5034579;28;20267;-42
2021/04/03 12:31:07;;;;;;;4.88;3.28;;;10.20;66.80;;;;;;5034751;28;20255;-39
2021/04/03 12:33:35;;;;;;;5.22;3.28;;;10.40;66.50;;;;;;5034685;28;20209;-40
2021/04/03 12:36:04;;;;;;;4.38;2.90;;;10.50;65.60;;;;;;5034412;28;20213;-40
2021/04/03 12:38:31;;;;;;;5.15;2.88;;;10.70;65.20;;;;;;5034428;28;20714;-40
2021/04/03 12:40:58;;;;;;;6.20;3.20;;;10.80;64.50;;;;;;5034352;28;20554;-40
2021/04/03 12:43:26;;;;;;;4.38;2.92;;;11.00;64.00;;;;;;5034471;28;20327;-39
2021/04/03 12:45:53;;;;;;;4.22;2.80;;;11.10;63.60;;;;;;5034363;28;20235;-40
2021/04/03 12:48:21;;;;;;;4.57;3.05;;;11.20;63.40;;;;;;5034387;28;20442;-39
2021/04/03 12:50:48;;;;;;;10.00;3.92;;;11.50;62.80;;;;;;5034036;28;20251;-39
2021/04/03 12:53:15;;;;;;;4.43;3.20;;;11.70;62.40;;;;;;5034033;28;20217;-40
2021/04/03 12:55:42;;;;;;;6.18;3.80;;;11.80;61.70;;;;;;5034172;28;20248;-41
2021/04/03 12:58:10;;;;;;;3.55;2.60;;;11.90;60.60;;;;;;5033915;28;20205;-40
2021/04/03 13:00:37;;;;;;;8.63;2.40;;;12.00;59.90;;;;;;5034037;28;20205;-39